Aviation Digital Data Service (ADDS)

Output produced by METARs form (2054 UTC 29 May 2017)
found at http://www.aviationweather.gov/adds/metars/
 
EDAC 291750Z 05002KT CAVOK 27/// Q1012
TAF EDAC 291400Z 2915/2924 25006KT CAVOK 
     PROB30 
     TEMPO 2915/2918 27015G30KT TSRA SCT025CB 
     BECMG 2915/2917 19004KT
       
EDMA 291920Z 09002KT CAVOK 22/13 Q1014
TAF EDMA 291700Z 2918/3003 VRB03KT CAVOK
       
EDVE 291950Z 09005KT CAVOK 24/22 Q1011
TAF AMD EDVE 292012Z 2920/2921 08004KT CAVOK 
     TEMPO 2920/2921 TSRA BKN040CB
       
EDDW 292050Z 06008KT 9999 FEW025CB BKN270 22/16 Q1011 NOSIG
TAF EDDW 291700Z 2918/3018 05004KT 9999 FEW040 
     PROB30 
     TEMPO 2921/3006 TSRA BKN030CB 
     BECMG 3006/3009 28008KT 
     BECMG 3009/3012 27015G25KT 
     PROB30 
     TEMPO 3010/3016 TSRA BKN025CB 
     BECMG 3016/3018 28010KT
       
ETSB 292020Z AUTO 19005KT 7000 // ////// 22/13 Q1014 ///
TAF ETSB 291415Z 2914/2923 22010KT 9999 NSW FEW060 SCT250 
     PROB30 2914/2918 21015G30KT 4000 TSRA SCT020 BKN040CB CANCEL 1400 BY ETGL
       
ETHB 292020Z 06003KT 9999 VCTS FEW050CB 24/20 Q1010 BLU+BLU+
TAF AMD ETHB 292041Z 2917/3002 16006KT 9999 NSW FEW060 BKN200 
     TEMPO 2917/2921 08006KT 9999 NSW FEW050CB CANCEL 2100
       
ETHC 292020Z 06003KT 9999 VCTS FEW016CB BKN050 23/19 Q1011 BLU
TAF AMD ETHC 291645Z 2914/2923 VRB03KT 9999 NSW FEW140 BKN350 CANCEL 1700
       
EDLW 291950Z VRB02KT CAVOK 24/14 Q1010
TAF EDLW 291700Z 2918/3018 25007KT CAVOK 
     TEMPO 2918/3005 19004KT 
     BECMG 3005/3008 25013KT
       
EDDC 292050Z 18002KT CAVOK 25/15 Q1013
TAF EDDC 291700Z 2918/3018 27005KT CAVOK 
     BECMG 2918/2920 17006KT 
     BECMG 3007/3009 23008KT 
     PROB40 
     TEMPO 3012/3017 SHRA SCT025CB
       
EDDL 292050Z 29005KT CAVOK 25/19 Q1011 NOSIG
TAF COR EDDL 291750Z 2918/3024 33007KT CAVOK 
     TEMPO 2918/2920 28015G25KT TSRAGR BKN030CB 
     BECMG 3005/3007 25010KT 
     PROB30 
     TEMPO 3012/3015 28020G35KT TSRA BKN030CB 
     BECMG 3018/3021 28005KT
       
EDDE 292050Z 20007KT CAVOK 22/17 Q1013
TAF EDDE 291700Z 2918/3018 19007KT CAVOK 
     PROB40 
     TEMPO 3008/3018 27015G25KT SHRA SCT020CB 
     PROB30 
     TEMPO 3012/3015 27020G40KT TSRA BKN010CB
       
ETHS 292020Z 08005KT 9999 FEW040CB BKN220 21/15 Q1011 BLU+
TAF AMD ETHS 291430Z 2914/2923 32008KT 9999 NSW SCT150 BKN300 CANCEL 1500
       
EDFH 292020Z 22008KT CAVOK 21/10 Q1014
TAF EDFH 291700Z 2918/3018 21008KT CAVOK 
     BECMG 3006/3009 27012KT 
     PROB40 
     TEMPO 3012/3015 27015G25KT 4000 TSRA BKN035CB
       
EDDF 292050Z 18003KT CAVOK 23/15 Q1011 NOSIG
TAF COR EDDF 291725Z 2918/3024 19008KT CAVOK 
     TEMPO 2918/2919 21013KT TSRA SCT050CB 
     BECMG 2918/2920 12004KT 
     BECMG 3006/3008 21005KT 
     BECMG 3009/3011 23010KT 
     PROB30 
     TEMPO 3013/3017 26015G25KT TSRA SCT040CB 
     BECMG 3014/3016 30010KT 
     BECMG 3018/3020 31005KT
       
EDNY 292020Z AUTO VRB01KT 9999 21/12 Q1014
TAF EDNY 291700Z 2918/3018 25005KT CAVOK 
     TEMPO 2918/2921 28015G25KT TSRA BKN040CB
       
ETHF 292020Z 27003KT 9999 FEW280 22/16 Q1011 BLU+
TAF AMD ETHF 291548Z 2914/2923 19008KT 9999 NSW FEW050CB SCT120 
     PROB30 2914/2917 21010G25KT 3000 TSGS BKN040CB CANCEL 1600
       
ETNG 292050Z 28003KT CAVOK 21/20 Q1012
TAF ETNG 291700Z 2918/3009 26008KT CAVOK 
     PROB40 
     TEMPO 2918/2924 VRB15G35KT 3000 TSRAGR BKN050CB 
     BECMG 2919/2921 VRB03KT 
     BECMG 3005/3007 27007KT
       
ETIC 292000Z AUTO 00000KT 9999 SCT170 22/16 A2994 RMK AO2 RAE00 SLP121
TAF ETIC 291405Z 2914/3020 VRB06KT 9999 FEW100 QNH2995INS 
     TEMPO 2914/2920 VRB15G25KT 8000 -TSRA BKN060CB 
     BECMG 3000/3001 VRB06KT 8000 BR SKC QNH2993INS 
     TEMPO 3001/3003 3200 BR 
     BECMG 3004/3005 27009KT 9999 NSW SCT060 QNH2996INS TX33/2914Z TN12/3004Z
       
EDDH 292050Z 07006KT CAVOK 19/16 Q1011 NOSIG
TAF EDDH 291700Z 2918/3024 04004KT CAVOK 
     PROB30 
     TEMPO 2923/3007 TSRA BKN030CB 
     BECMG 3007/3010 28007KT 
     PROB30 
     TEMPO 3010/3017 28015G25KT TSRA BKN025CB
       
EDHI 291850Z 05007KT CAVOK 22/15 Q1011
TAF EDHI 291700Z 2918/2921 03004KT CAVOK
       
EDDV 292050Z 04007KT 9999 FEW070CB BKN300 21/18 Q1010 TEMPO TSRA
TAF AMD EDDV 291906Z 2919/3018 08004KT CAVOK 
     PROB30 
     TEMPO 2919/3006 TSRA BKN040CB 
     BECMG 3006/3009 26010KT 
     TEMPO 3010/3016 27015G25KT 
     PROB30 
     TEMPO 3010/3018 TSRA BKN025CB
       
EDAH 291650Z 02007KT CAVOK 18/14 Q1013
TAF EDAH 291700Z 2918/3003 VRB03KT CAVOK 
     BECMG 2920/2923 4000 BR
       
EDQM 291750Z 00000KT CAVOK 23/14 Q1015
TAF EDQM 291700Z 2918/3003 VRB03KT 9999 FEW050CB 
     PROB30 
     TEMPO 2918/2920 20015G35KT 4000 TSRAGR
       
ETIH 291958Z AUTO 29004KT 9999 BKN140 BKN160 21/15 A2997 RMK AO2 SLP132
TAF AMD ETIH 291811Z 2918/3019 VRB06KT 9999 FEW100 QNH2995INS 
     BECMG 3001/3002 VRB06KT 2400 BR SKC QNH2993INS 
     BECMG 3007/3008 27009KT 9999 NSW SCT060 QNH2996INS TX32/3014Z TN12/3004Z
       
ETNH 292020Z 06005KT 9999 SCT070 SCT150 BKN210 16/14 Q1012 BLU+
TAF ETNH 291627Z 2917/3005 27007KT 9999 NSW FEW020 SCT080 BKN150 
     BECMG 2917/2919 05005KT 9999 NSW FEW020 SCT040 BKN100 
     TEMPO 2923/3005 VRB03KT 4000 BR FEW010 SCT100 BKN180 
     PROB30 2902/3005 VRB10KT 2500 TSRA BKN007 BKN030CB OVC100 BY ETGL
       
ETSH 292020Z VRB01KT 9999 FEW120 22/15 Q1012 BLU+BLU+
TAF ETSH 291322Z 2914/2923 25010KT 9999 NSW FEW060 
     PROB30 2916/2920 27015G25KT 6000 -TSRA FEW020 BKN050CB
       
ETSI 292020Z AUTO 09002KT 5000 // ////// 23/16 Q1014 ///
TAF ETSI 291315Z 2914/2923 12004KT 9999 NSW FEW070 SCT280 CANCEL 1420
       
EDSB 292020Z 20004KT CAVOK 26/14 Q1013
TAF EDSB 291700Z 2918/3018 21004KT CAVOK 
     BECMG 3007/3009 23009KT 
     PROB30 
     TEMPO 3014/3017 TSRA BKN040CB
       
EDVK 291920Z 16007KT 9999 FEW050CB 26/16 Q1012
TAF EDVK 292000Z 2921/3001 16007KT CAVOK
       
EDHK 291550Z VRB03KT 9999 SCT024 20/15 Q1013
EDDK 292050Z VRB02KT CAVOK 23/16 Q1011 NOSIG
TAF EDDK 291700Z 2918/3024 23010KT CAVOK 
     BECMG 2918/2921 13004KT 
     BECMG 3007/3011 26009KT 
     PROB30 
     TEMPO 3012/3015 28020G35KT TSRA BKN030CB 
     BECMG 3018/3021 28004KT
       
ETNL 292020Z 09005KT 9999 FEW072 17/15 Q1012 BLU+
TAF ETNL 291600Z 2917/3005 31010KT 9999 NSW FEW030 SCT250 
     BECMG 3003/3005 27010KT 9999 NSW FEW030 BKN100 BY ETGL
       
EDTL 291750Z 32004KT CAVOK 28/15 Q1012
TAF EDTL 291700Z 2918/2924 23006KT CAVOK 
     BECMG 2918/2920 17004KT
       
ETSA 292020Z 09003KT 9999 FEW300 22/11 Q1015 BLU+
TAF ETSA 291621Z 2917/3005 01005KT 9999 NSW FEW050 SCT150 BY ETGL
       
ETHL 292020Z 08003KT 9999 FEW060 21/13 Q1015 BLU+
TAF AMD ETHL 291531Z 2914/2923 VRB03KT 9999 NSW FEW060TCU SCT200 CANCEL 1600
       
ETSL 292020Z AUTO 08001KT 7000 // ////// 20/12 Q1015 ///
TAF ETSL 291315Z 2914/2923 VRB03KT 9999 NSW FEW060 CANCEL 1400 BY ETGL
       
EDDP 292050Z 12005KT CAVOK 23/16 Q1012 NOSIG
TAF EDDP 291700Z 2918/3018 19005KT CAVOK 
     PROB40 
     TEMPO 3012/3018 27015G25KT SHRA SCT020CB 
     PROB30 
     TEMPO 3014/3018 27020G40KT TSRA BKN010CB
       
EDHL 291820Z 06007KT CAVOK 19/15 Q1012
TAF EDHL 291700Z 2918/2921 03005KT CAVOK
       
EDFM 292020Z VRB03KT CAVOK 26/14 Q1012
TAF EDFM 291700Z 2918/2921 16006KT CAVOK 
     PROB30 
     TEMPO 2918/2919 TSRA SCT050CB
       
EDLN 291820Z 31009KT 280V340 CAVOK 28/19 Q1011
TAF AMD EDLN 291715Z 2917/2924 28009KT CAVOK 
     TEMPO 2917/2920 TSRAGR SCT025CB 
     BECMG 2918/2920 25004KT
       
EDDM 292050Z VRB01KT CAVOK 19/13 Q1014 NOSIG
TAF EDDM 291700Z 2918/3024 06003KT CAVOK 
     BECMG 3004/3007 25006KT 
     TEMPO 3019/3022 TSRA BKN040CB
       
EDDG 292050Z VRB02KT 9999 FEW050CB BKN300 24/19 Q1010 NOSIG
TAF EDDG 291700Z 2918/3018 VRB03KT CAVOK 
     BECMG 3004/3007 25012KT 
     BECMG 3009/3011 26015G25KT 
     BECMG 3016/3018 27009KT
       
ETSN 292020Z 28002KT 9999 SCT140 SCT280 21/15 Q1014 BLU+
TAF ETSN 291900Z 2920/3005 VRB03KT 9999 NSW SCT070 BY ETGL
       
ETHN 292020Z 12005KT 9999 FEW060 SCT210 22/15 Q1014 BLU+BLU+
TAF ETHN 291319Z 2914/2923 16007KT 9999 NSW FEW060TCU 
     TEMPO 2914/2920 VRB15G25KT 3000 SHRA TSRAGR SCT010 BKN040CB
       
ETMN 292020Z 07006KT 9999 SCT140 BKN190 17/15 Q1011 BLU
TAF ETMN 291629Z 2917/3002 07008KT 9999 NSW FEW020 SCT080 
     BECMG 2923/3001 09005KT 6000 NSW BKN005 BKN010 CANCEL 1820
       
ETNN 292020Z 24006KT 9999 FEW050 SCT220 BKN270 24/16 Q1011 BLU+
TAF ETNN 291900Z 2920/3005 25008KT 9999 NSW FEW050 SCT220 
     PROB30 2920/3005 VRB15G30KT 3000 TSRAGR BKN030CB BY ETGL
       
EDDN 292050Z 00000KT CAVOK 24/17 Q1014
TAF EDDN 291700Z 2918/3018 15004KT CAVOK 
     BECMG 3004/3006 24007KT 
     TEMPO 3006/3009 29015G25KT SHRA BKN040CB
       
EDMO 291850Z 07004KT CAVOK 24/10 Q1015
TAF EDMO 291700Z 2918/3003 03007KT CAVOK 
     BECMG 2918/2920 VRB02KT
       
EDLP 292020Z VRB01KT CAVOK 22/15 Q1011
TAF EDLP 291700Z 2918/3018 VRB03KT CAVOK 
     BECMG 2918/2921 17007KT 
     BECMG 3006/3009 25012KT
       
ETAR 291958Z 00000KT 9999 FEW080 SCT110 26/11 A2990 RMK AO2A SLP114 T02640112 $
TAF AMD ETAR 291812Z 2918/3024 22009KT 9999 SCT050 QNH2987INS 
     TEMPO 2918/2919 22012G20KT 
     BECMG 3012/3013 27010G15KT 9999 BKN030 QNH2997INS 
     TEMPO 3016/3018 8000 -TSRA BKN030CB 
     BECMG 3018/3019 28009KT 9999 BKN050 QNH3002INS TX32/2918Z TN14/3004Z
       
ETHE 292020Z AUTO 03001KT //// // ////// 23/19 Q1010 ///
EDDR 292050Z 23008KT CAVOK 23/11 Q1014
TAF EDDR 291700Z 2918/3018 20004KT CAVOK 
     BECMG 3007/3009 26011KT 
     PROB30 
     TEMPO 3012/3015 27015G25KT TSRA SCT040CB
       
ETNS 292020Z AUTO 10005KT //// // ////// 16/14 Q1012 ///
TAF ETNS 291325Z 2914/2923 30012KT 8000 NSW SCT015 SCT140 CANCEL 1530Z BY ETGL
       
EDDB 292050Z 08006KT CAVOK 22/14 Q1012 NOSIG
TAF COR EDDB 291734Z 2918/3018 35004KT CAVOK 
     BECMG 3007/3010 20009KT 
     PROB40 
     TEMPO 3012/3018 27015G30KT 4000 TSRA BKN025CB
       
EDTY 291750Z 00000KT CAVOK 25/18 Q1014
TAF EDTY 291700Z 2918/3003 16005KT 9999 FEW050CB 
     BECMG 2918/2920 VRB03KT 
     PROB30 
     TEMPO 2918/2920 18020G35KT 4000 TSRAGR
       
EDOP 291550Z 27006KT 220V360 CAVOK 26/14 Q1012
TAF EDOP 291100Z 2912/3012 32006KT CAVOK 
     BECMG 2916/2918 VRB03KT 
     BECMG 3006/3009 23007KT
       
EDGS 291850Z 22005KT CAVOK 26/13 Q1014
TAF EDGS 291700Z 2918/3003 18011KT CAVOK 
     BECMG 2918/2921 19006KT
       
ETAD 291958Z AUTO 00000KT 9999 CLR 22/15 A2992 RMK AO2 SLP105 T02210149 $
TAF ETAD 291915Z 2919/3101 20009KT 9999 SKC QNH2985INS 
     BECMG 3007/3008 22009KT 9999 BKN030 QNH2992INS TX25/3013Z TN14/3004Z
       
EDDS 292050Z VRB02KT CAVOK 23/16 Q1014
TAF EDDS 291700Z 2918/3018 VRB02KT CAVOK 
     BECMG 3007/3009 24006KT 
     BECMG 3012/3014 31008KT 
     PROB30 
     TEMPO 3014/3017 TSRA SCT040CB
       
EDDT 292050Z 07005KT 030V100 CAVOK 23/14 Q1012 NOSIG
TAF COR EDDT 291729Z 2918/3018 03005KT CAVOK 
     BECMG 3007/3010 20009KT 
     PROB40 
     TEMPO 3012/3018 27015G30KT 4000 TSRA BKN025CB
       
EDXW 291650Z 02005KT 9999 BKN006 13/13 Q1013
TAF EDXW 291700Z 2918/2921 02005KT 9999 BKN006 
     TEMPO 2918/2921 SCT008
       
ETOU 291958Z AUTO 00000KT 9999 CLR 25/16 A2988 RMK AO2 VIS 4000 RWY07 SLP114 T02510160
TAF AMD ETOU 291405Z 2914/3017 17009KT 9999 SKC QNH2990INS 
     BECMG 2914/2915 22009KT 9999 VCTS FEW065CB QNH2991INS 
     TEMPO 2916/2919 VRB15G25KT 8000 -TSRA BKN065CB 
     BECMG 3001/3002 23009KT 9999 NSW FEW065 SCT250 QNH2992INS 
     BECMG 3014/3015 23009KT 8000 -SHRA VCTS SCT025CB BKN130 QNH2992INS TX34/3012Z TN13/3003Z LAST NO AMDS AFT 2914 NEXT 3003
       
ETNT 292020Z 04004KT 9999 SCT160 BKN250 15/14 Q1011 BLU+
TAF ETNT 291900Z 2920/3005 04007KT 9999 NSW SCT120 BKN230 
     TEMPO 3000/3005 VRB03KT 3000 BR BKN005 BKN230 BY ETGL
       
ETNW 292020Z 10004KT 9999 VCTS SCT038CB BKN070 25/19 Q1010 BLU FCST CANCEL
TAF ETNW 291628Z 2917/3017 10005KT 9999 NSW SCT250 TMEPO 2922/3005 VRB03KT 8000 NSW FEW100 BKN220 
     BECMG 3007/3009 24013KT 9999 NSW SCT050 BKN150 
     TEMPO 3011/3017 27015G25KT 7000 -SHRA SCT050CB BKN100 
     PROB30 3012/3017 VRB15G30KT 4000 TSRA SCT015 BKN040CB BKN080 BY ETGL